Allison, Texas
Current Conditions -  °F | °C
As of 3:35 PM on Saturday 25 Oct 2014 (Local Time) from KHHF Reporting Station
Clear Clear  
Wind Chill: 33°   Ceiling: Unl
Heat Index: 33°   Visibility: 10mi
Dew Point:   Wind: 14mph
Humidity: 24%   Direction: 230°SW
Pressure: 30.04"   Gusts: 17mph
Location:  35.61°N, 100.1°W
Report Text: KHHF 252035Z AUTO 23012G15KT 10SM CLR 33/09 A3004 RMK AO2 T03250094
Loading
Personal Weather Stations






























Interactive Weather Map
Tropical Storm Tracking
New forecast layout! Learn more

10-Day Weather Forecast

Advertisements
Track Severe Weather on mobile